Time;durP1;ratioP1;P1;durP2;ratioP2;P2;SDS_P1;SDS_P2;PMS_P1;PMS_P2;Temp;Humidity;BMP_temperature;BMP_pressure;BME280_temperature;BME280_humidity;BME280_pressure;Samples;Min_cycle;Max_cycle;Signal;HPM_P1;HPM_P2
2021/11/30 00:00:18;;;;;;;1.15;0.98;;;21.50;69.90;;;;;;5017238;28;96031;-51
2021/11/30 00:02:48;;;;;;;0.80;0.70;;;21.50;69.80;;;;;;5020047;28;96588;-57
2021/11/30 00:05:19;;;;;;;1.65;1.00;;;21.60;69.60;;;;;;5021901;27;95872;-49
2021/11/30 00:07:56;;;;;;;1.17;0.98;;;21.70;69.70;;;;;;5021818;28;95982;-54
2021/11/30 00:10:48;;;;;;;1.08;1.00;;;21.80;69.50;;;;;;5022978;28;96275;-48
2021/11/30 00:13:21;;;;;;;0.70;0.70;;;21.80;69.50;;;;;;5020886;28;96366;-48
2021/11/30 00:15:52;;;;;;;1.10;0.80;;;22.00;69.50;;;;;;5014250;28;95909;-54
2021/11/30 00:18:26;;;;;;;0.85;0.85;;;22.00;69.30;;;;;;5018244;28;95730;-56
2021/11/30 00:21:00;;;;;;;1.10;1.02;;;22.10;69.20;;;;;;5018600;28;95692;-58
2021/11/30 00:23:31;;;;;;;0.70;0.70;;;22.10;69.00;;;;;;5016679;28;96095;-56
2021/11/30 00:26:05;;;;;;;0.75;0.75;;;22.20;69.00;;;;;;5019934;27;96543;-52
2021/11/30 00:28:41;;;;;;;0.70;0.70;;;22.30;68.90;;;;;;5020754;27;95955;-56
2021/11/30 00:31:14;;;;;;;0.80;0.80;;;22.40;68.90;;;;;;5018520;28;95781;-51
2021/11/30 00:33:46;;;;;;;0.60;0.60;;;22.50;68.70;;;;;;5017690;27;97081;-57
2021/11/30 00:36:17;;;;;;;2.15;0.82;;;22.50;68.60;;;;;;5020549;27;95334;-53
2021/11/30 00:38:52;;;;;;;0.95;0.90;;;22.60;68.50;;;;;;5019099;27;96740;-57
2021/11/30 00:41:23;;;;;;;0.70;0.70;;;22.70;67.80;;;;;;5011955;27;96619;-52
2021/11/30 00:43:55;;;;;;;1.00;0.90;;;22.70;68.30;;;;;;5020721;27;97078;-57
2021/11/30 00:46:38;;;;;;;0.65;0.60;;;22.80;68.10;;;;;;5021484;28;96519;-54
2021/11/30 00:49:11;;;;;;;1.10;1.00;;;22.90;68.10;;;;;;5016399;27;95732;-55
2021/11/30 00:51:44;;;;;;;0.95;0.93;;;23.00;68.00;;;;;;4999255;28;96655;-53
2021/11/30 00:54:17;;;;;;;1.00;0.90;;;23.00;67.20;;;;;;5021013;28;96920;-51
2021/11/30 00:56:51;;;;;;;1.63;0.70;;;23.00;67.70;;;;;;5020457;28;95786;-56
2021/11/30 00:59:27;;;;;;;1.10;1.00;;;23.10;67.60;;;;;;5017009;28;95331;-50
2021/11/30 01:02:02;;;;;;;0.80;0.80;;;23.20;67.50;;;;;;5016926;28;95453;-53
2021/11/30 01:07:29;;;;;;;1.17;1.17;;;23.40;67.20;;;;;;5017716;28;95958;-52
2021/11/30 01:10:01;;;;;;;2.47;1.27;;;23.30;64.10;;;;;;5017655;28;96964;-56
2021/11/30 01:12:34;;;;;;;1.15;1.00;;;23.00;62.00;;;;;;5018392;28;95972;-58
2021/11/30 01:15:10;;;;;;;2.05;1.13;;;22.80;62.80;;;;;;5013289;28;97562;-56
2021/11/30 01:17:42;;;;;;;2.95;1.30;;;22.60;62.60;;;;;;5027338;27;95761;-52
2021/11/30 01:20:15;;;;;;;1.52;1.27;;;22.60;62.30;;;;;;4999964;28;96455;-52
2021/11/30 01:22:47;;;;;;;0.90;0.90;;;22.50;62.00;;;;;;5016705;28;95378;-54
2021/11/30 01:25:20;;;;;;;1.17;1.02;;;22.40;61.60;;;;;;5017305;28;96675;-54
2021/11/30 01:27:51;;;;;;;1.52;1.20;;;22.40;61.20;;;;;;5015035;28;96675;-53
2021/11/30 01:30:25;;;;;;;0.95;0.95;;;22.30;61.00;;;;;;5019051;28;95923;-53
2021/11/30 01:32:57;;;;;;;2.13;1.13;;;22.30;60.80;;;;;;5016520;28;96292;-54
2021/11/30 01:38:30;;;;;;;1.08;0.98;;;22.20;60.10;;;;;;5005467;27;96608;-55
2021/11/30 01:41:04;;;;;;;0.80;0.80;;;22.20;61.20;;;;;;5010728;27;96292;-56
2021/11/30 01:43:44;;;;;;;1.88;1.13;;;22.30;61.40;;;;;;5018741;27;96130;-57
2021/11/30 01:51:57;;;;;;;3.33;1.67;;;22.50;61.80;;;;;;4948894;28;96087;-59
2021/11/30 01:54:28;;;;;;;2.05;0.98;;;22.60;62.10;;;;;;4957648;28;95784;-56
2021/11/30 01:57:01;;;;;;;0.95;0.90;;;22.80;62.30;;;;;;4957546;28;96752;-54
2021/11/30 01:59:35;;;;;;;1.33;0.90;;;23.00;62.20;;;;;;4956001;28;96279;-52
2021/11/30 02:02:06;;;;;;;1.27;1.17;;;23.20;62.20;;;;;;4957420;28;96232;-56
2021/11/30 02:04:38;;;;;;;2.95;1.20;;;23.40;62.30;;;;;;4955836;28;95413;-54
2021/11/30 02:07:10;;;;;;;1.27;0.80;;;23.50;62.30;;;;;;4952886;28;96378;-51
2021/11/30 02:09:44;;;;;;;2.53;1.05;;;23.60;62.40;;;;;;4952708;28;95643;-51
2021/11/30 02:12:16;;;;;;;0.80;0.80;;;23.70;62.30;;;;;;4954605;28;96248;-51
2021/11/30 02:14:50;;;;;;;0.70;0.70;;;23.80;62.40;;;;;;4957581;28;95418;-55
2021/11/30 02:17:22;;;;;;;0.73;0.73;;;23.90;62.60;;;;;;4957283;28;97907;-59
2021/11/30 02:19:58;;;;;;;0.90;0.90;;;24.00;62.60;;;;;;4955927;28;96099;-55
2021/11/30 02:22:29;;;;;;;0.95;0.88;;;24.10;62.70;;;;;;4956693;28;96098;-57
2021/11/30 02:25:03;;;;;;;0.80;0.70;;;24.20;62.80;;;;;;4956151;28;95472;-54
2021/11/30 02:27:34;;;;;;;1.13;0.90;;;24.30;62.10;;;;;;5021887;28;96353;-49
2021/11/30 02:30:11;;;;;;;1.60;0.93;;;24.40;62.00;;;;;;5022052;27;95842;-55
2021/11/30 02:32:43;;;;;;;3.35;1.10;;;24.20;61.60;;;;;;5021535;27;95919;-47
2021/11/30 02:35:15;;;;;;;4.68;1.00;;;24.10;61.50;;;;;;5022831;27;95969;-54
2021/11/30 02:37:50;;;;;;;1.65;1.10;;;24.00;61.20;;;;;;5023542;28;96746;-48
2021/11/30 02:40:22;;;;;;;1.73;1.17;;;23.90;60.70;;;;;;5015160;27;96150;-49
2021/11/30 02:42:54;;;;;;;1.02;0.75;;;23.90;60.10;;;;;;5016492;27;96202;-54
2021/11/30 02:45:26;;;;;;;2.00;1.13;;;23.80;59.80;;;;;;5013075;27;95527;-53
2021/11/30 02:48:02;;;;;;;1.38;0.82;;;23.80;59.30;;;;;;4975871;28;96111;-54
2021/11/30 02:50:42;;;;;;;0.77;0.77;;;23.70;59.00;;;;;;4982390;28;95581;-54
2021/11/30 02:53:21;;;;;;;1.75;1.10;;;23.70;58.50;;;;;;4980779;28;95808;-54
2021/11/30 02:55:51;;;;;;;1.02;0.90;;;23.70;58.20;;;;;;4980084;28;95923;-53
2021/11/30 02:58:23;;;;;;;1.65;0.95;;;23.60;57.80;;;;;;4978621;28;97146;-52
2021/11/30 03:00:55;;;;;;;2.42;1.00;;;23.60;57.60;;;;;;4976658;28;95471;-53
2021/11/30 03:03:27;;;;;;;;;;;23.60;57.40;;;;;;4979825;28;95752;-45
2021/11/30 03:06:00;;;;;;;1.42;1.00;;;23.60;57.70;;;;;;4983429;28;95873;-47
2021/11/30 03:08:31;;;;;;;0.77;0.77;;;23.80;58.20;;;;;;4979940;28;96292;-47
2021/11/30 03:11:01;;;;;;;1.23;0.70;;;24.10;58.20;;;;;;4978321;28;96267;-50
2021/11/30 03:13:33;;;;;;;0.93;0.93;;;24.20;57.80;;;;;;4977340;28;95861;-53
2021/11/30 03:16:05;;;;;;;1.92;0.98;;;24.30;57.60;;;;;;4972756;28;95838;-51
2021/11/30 03:18:37;;;;;;;0.77;0.77;;;24.40;57.40;;;;;;4979481;28;95945;-50
2021/11/30 03:21:09;;;;;;;1.88;0.90;;;24.50;57.40;;;;;;4982077;28;96045;-55
2021/11/30 03:23:43;;;;;;;1.23;1.00;;;24.60;56.90;;;;;;4980699;28;96894;-48
2021/11/30 03:26:18;;;;;;;0.90;0.90;;;24.70;57.00;;;;;;4981925;28;95830;-52
2021/11/30 03:28:50;;;;;;;0.95;0.95;;;24.80;56.60;;;;;;4977994;28;96508;-56
2021/11/30 03:34:19;;;;;;;1.17;1.08;;;24.90;56.30;;;;;;4953979;28;98680;-54
2021/11/30 03:36:53;;;;;;;1.60;0.98;;;25.00;56.20;;;;;;4977064;28;96027;-55
2021/11/30 03:39:26;;;;;;;0.90;0.90;;;25.00;56.00;;;;;;4978913;28;96751;-49
2021/11/30 03:42:01;;;;;;;1.08;0.80;;;25.00;55.80;;;;;;4977457;28;98737;-48
2021/11/30 03:44:32;;;;;;;0.80;0.80;;;25.10;55.30;;;;;;4980808;28;96344;-54
2021/11/30 03:47:02;;;;;;;1.15;0.90;;;25.20;55.30;;;;;;4973310;28;96478;-51
2021/11/30 03:49:32;;;;;;;0.75;0.75;;;25.20;55.10;;;;;;4972327;28;96449;-53
2021/11/30 03:52:08;;;;;;;3.03;0.75;;;25.20;54.90;;;;;;4981849;28;96073;-52
2021/11/30 03:54:41;;;;;;;2.05;0.93;;;25.30;54.80;;;;;;4975678;28;96046;-51
2021/11/30 03:57:14;;;;;;;1.10;1.00;;;25.40;54.50;;;;;;4983082;28;95812;-48
2021/11/30 03:59:45;;;;;;;1.13;1.00;;;25.40;54.40;;;;;;4980220;28;95835;-54
2021/11/30 04:02:16;;;;;;;0.77;0.63;;;25.50;54.00;;;;;;4973350;28;96217;-53
2021/11/30 04:04:47;;;;;;;1.35;0.80;;;25.50;54.10;;;;;;4981092;28;97871;-50
2021/11/30 04:07:19;;;;;;;1.15;0.75;;;25.50;53.90;;;;;;4979409;28;95969;-53
2021/11/30 04:09:50;;;;;;;2.13;1.17;;;25.60;53.80;;;;;;4981624;28;96372;-55
2021/11/30 04:12:21;;;;;;;1.33;0.90;;;25.50;51.30;;;;;;4980902;28;96588;-51
2021/11/30 04:14:57;;;;;;;2.47;1.08;;;25.30;51.30;;;;;;4975874;28;96375;-48
2021/11/30 04:17:32;;;;;;;1.10;1.00;;;25.20;51.20;;;;;;4976085;28;95590;-49
2021/11/30 04:20:04;;;;;;;1.45;1.02;;;25.10;51.50;;;;;;4980148;28;97182;-46
2021/11/30 04:22:36;;;;;;;1.98;1.00;;;25.10;50.80;;;;;;4977616;28;95827;-49
2021/11/30 04:25:10;;;;;;;2.47;1.17;;;25.00;50.70;;;;;;4980256;28;96534;-52
2021/11/30 04:27:41;;;;;;;1.30;1.20;;;25.00;50.70;;;;;;4979120;28;96152;-47
2021/11/30 04:30:13;;;;;;;1.15;0.85;;;25.10;50.60;;;;;;4976763;28;95731;-47
2021/11/30 04:32:44;;;;;;;2.70;1.00;;;25.10;50.40;;;;;;4972660;28;95980;-53
2021/11/30 04:35:18;;;;;;;2.28;0.98;;;25.10;50.50;;;;;;4958896;28;97351;-53
2021/11/30 04:37:48;;;;;;;1.27;1.00;;;25.10;50.50;;;;;;4956961;28;96616;-51
2021/11/30 04:40:19;;;;;;;1.27;1.17;;;25.00;50.20;;;;;;4950914;28;96941;-54
2021/11/30 04:42:50;;;;;;;2.58;0.85;;;25.00;49.90;;;;;;4956141;28;96233;-51
2021/11/30 04:45:32;;;;;;;0.95;0.70;;;24.90;49.80;;;;;;4954479;28;95731;-54
2021/11/30 04:48:02;;;;;;;0.60;0.60;;;24.90;50.70;;;;;;4976080;28;95878;-54
2021/11/30 04:50:36;;;;;;;0.93;0.73;;;24.80;49.90;;;;;;4978618;28;96322;-53
2021/11/30 04:53:09;;;;;;;1.25;0.95;;;24.70;49.60;;;;;;4975773;28;96607;-51
2021/11/30 04:55:40;;;;;;;1.80;1.40;;;24.70;49.70;;;;;;4976660;28;95803;-56
2021/11/30 04:58:11;;;;;;;1.55;0.80;;;24.70;49.60;;;;;;4980641;28;96306;-52
2021/11/30 05:00:42;;;;;;;2.38;0.90;;;24.70;49.60;;;;;;4971317;28;96348;-54
2021/11/30 05:03:14;;;;;;;1.63;0.80;;;24.70;49.70;;;;;;4978339;28;96448;-55
2021/11/30 05:05:47;;;;;;;1.15;0.98;;;24.60;49.30;;;;;;4970538;28;96275;-54
2021/11/30 05:08:19;;;;;;;1.23;0.95;;;24.60;49.30;;;;;;4975580;28;95975;-50
2021/11/30 05:10:51;;;;;;;0.80;0.80;;;24.60;49.30;;;;;;4972506;28;96285;-51
2021/11/30 05:13:22;;;;;;;0.85;0.80;;;24.60;49.30;;;;;;4976040;28;96463;-55
2021/11/30 05:15:54;;;;;;;5.40;1.27;;;24.60;49.40;;;;;;4974843;28;95833;-47
2021/11/30 05:18:26;;;;;;;1.50;1.20;;;24.60;49.30;;;;;;4974228;28;98102;-56
2021/11/30 05:20:59;;;;;;;1.38;0.85;;;24.60;49.30;;;;;;4979256;28;96889;-57
2021/11/30 05:23:33;;;;;;;2.35;0.98;;;24.60;49.40;;;;;;4973587;28;98174;-55
2021/11/30 05:26:06;;;;;;;1.70;0.90;;;24.70;49.10;;;;;;4966535;28;95822;-58
2021/11/30 05:28:42;;;;;;;0.70;0.70;;;24.70;49.00;;;;;;4982200;28;95832;-54
2021/11/30 05:31:14;;;;;;;2.67;0.90;;;24.80;48.90;;;;;;4976117;28;96062;-54
2021/11/30 05:33:47;;;;;;;2.88;0.75;;;24.80;48.80;;;;;;4979468;28;96445;-52
2021/11/30 05:36:20;;;;;;;0.75;0.70;;;24.80;48.50;;;;;;4979200;28;95792;-49
2021/11/30 05:38:54;;;;;;;1.05;0.90;;;24.80;48.50;;;;;;4968693;28;96658;-49
2021/11/30 05:41:26;;;;;;;0.60;0.60;;;24.80;48.50;;;;;;4968068;28;96085;-50
2021/11/30 05:43:58;;;;;;;2.33;1.10;;;24.80;48.40;;;;;;4970236;28;95803;-48
2021/11/30 05:46:30;;;;;;;0.80;0.80;;;24.90;48.40;;;;;;4971048;28;95620;-46
2021/11/30 05:49:01;;;;;;;1.75;0.85;;;24.80;48.30;;;;;;4976070;28;95907;-49
2021/11/30 05:51:33;;;;;;;0.93;0.93;;;24.90;48.20;;;;;;4979679;28;96573;-52
2021/11/30 05:54:08;;;;;;;0.88;0.88;;;24.90;48.00;;;;;;4964690;28;98226;-53
2021/11/30 05:57:00;;;;;;;0.70;0.70;;;24.90;47.90;;;;;;4977898;28;95600;-49
2021/11/30 05:59:36;;;;;;;0.88;0.70;;;24.90;47.80;;;;;;4977292;28;95764;-56
2021/11/30 06:02:10;;;;;;;0.80;0.80;;;24.90;48.00;;;;;;4976644;28;95398;-52
2021/11/30 06:04:45;;;;;;;0.70;0.70;;;24.90;47.60;;;;;;4970879;28;96984;-52
2021/11/30 06:07:17;;;;;;;1.08;0.70;;;25.00;48.20;;;;;;4965149;28;96491;-55
2021/11/30 06:09:47;;;;;;;1.10;0.90;;;24.90;47.20;;;;;;4978649;28;96403;-53
2021/11/30 06:12:18;;;;;;;0.85;0.70;;;24.90;47.40;;;;;;4972906;28;96655;-52
2021/11/30 06:14:51;;;;;;;0.73;0.70;;;24.80;47.30;;;;;;4983903;28;96185;-56
2021/11/30 06:17:22;;;;;;;0.75;0.75;;;24.80;47.40;;;;;;4975031;28;95821;-56
2021/11/30 06:19:55;;;;;;;2.20;0.93;;;24.80;47.30;;;;;;4973247;28;97048;-57
2021/11/30 06:22:26;;;;;;;0.60;0.60;;;24.80;47.20;;;;;;4971161;28;96498;-56
2021/11/30 06:25:03;;;;;;;1.77;0.75;;;24.80;47.10;;;;;;4979624;28;95865;-53
2021/11/30 06:27:34;;;;;;;0.98;0.80;;;24.70;47.20;;;;;;4980269;28;95859;-55
2021/11/30 06:30:07;;;;;;;1.65;0.73;;;24.70;47.00;;;;;;4971412;28;96533;-56
2021/11/30 06:32:38;;;;;;;1.17;0.90;;;24.70;47.10;;;;;;4971129;28;96238;-56
2021/11/30 06:35:12;;;;;;;0.85;0.80;;;24.70;47.00;;;;;;4984791;28;96863;-55
2021/11/30 06:37:43;;;;;;;1.02;0.90;;;24.70;47.00;;;;;;4981006;28;95808;-53
2021/11/30 06:40:16;;;;;;;1.98;1.00;;;24.60;47.00;;;;;;4966646;28;95923;-54
2021/11/30 06:42:47;;;;;;;1.77;0.82;;;24.60;46.90;;;;;;4967844;28;96511;-52
2021/11/30 06:45:17;;;;;;;;;;;24.60;46.90;;;;;;4975950;28;95777;-54
2021/11/30 06:47:48;;;;;;;0.73;0.73;;;24.60;46.90;;;;;;4978930;28;95973;-54
2021/11/30 06:50:20;;;;;;;0.98;0.88;;;24.60;47.40;;;;;;4981681;28;96735;-52
2021/11/30 06:52:52;;;;;;;1.83;0.80;;;24.60;46.70;;;;;;4976581;28;96362;-54
2021/11/30 06:55:25;;;;;;;9.05;0.90;;;24.60;46.60;;;;;;4982599;28;96587;-52
2021/11/30 06:57:56;;;;;;;0.60;0.60;;;24.60;46.60;;;;;;4977225;28;95770;-55
2021/11/30 07:00:29;;;;;;;2.50;0.98;;;24.60;46.40;;;;;;4974847;28;96109;-54
2021/11/30 07:03:00;;;;;;;2.42;0.98;;;24.60;46.50;;;;;;4974987;28;96885;-52
2021/11/30 07:05:36;;;;;;;2.53;0.90;;;24.60;46.50;;;;;;4982378;28;96197;-55
2021/11/30 07:08:19;;;;;;;0.75;0.75;;;24.60;46.50;;;;;;4975929;28;95897;-53
2021/11/30 07:11:03;;;;;;;0.95;0.82;;;24.60;46.40;;;;;;4969164;28;95410;-52
2021/11/30 07:13:35;;;;;;;1.10;0.70;;;24.50;46.10;;;;;;4972612;28;96147;-53
2021/11/30 07:16:07;;;;;;;1.50;0.52;;;24.50;46.10;;;;;;4970729;28;96011;-53
2021/11/30 07:18:40;;;;;;;1.45;0.90;;;24.60;46.20;;;;;;4980310;28;95626;-55
2021/11/30 07:21:12;;;;;;;0.73;0.73;;;24.50;46.10;;;;;;4975169;28;95790;-55
2021/11/30 07:23:44;;;;;;;1.63;1.23;;;24.50;46.00;;;;;;4980727;28;96060;-50
2021/11/30 07:26:16;;;;;;;2.20;0.90;;;24.50;46.00;;;;;;4982106;28;96018;-51
2021/11/30 07:28:49;;;;;;;1.88;0.82;;;24.50;46.50;;;;;;4975102;28;96251;-49
2021/11/30 07:31:21;;;;;;;1.27;1.02;;;24.60;46.30;;;;;;4974283;28;95456;-50
2021/11/30 07:33:52;;;;;;;0.88;0.80;;;24.60;45.70;;;;;;4977824;28;96479;-52
2021/11/30 07:36:22;;;;;;;3.30;1.27;;;24.60;46.10;;;;;;4960471;28;97594;-49
2021/11/30 07:38:53;;;;;;;1.63;0.90;;;24.60;46.20;;;;;;4977253;28;95797;-52
2021/11/30 07:41:25;;;;;;;3.05;1.10;;;24.60;46.30;;;;;;4978702;28;96059;-51
2021/11/30 07:43:57;;;;;;;2.90;1.40;;;24.60;46.30;;;;;;4978143;28;97043;-51
2021/11/30 07:46:27;;;;;;;3.17;1.55;;;24.60;46.50;;;;;;4967371;28;96058;-50
2021/11/30 07:48:57;;;;;;;2.15;1.25;;;24.60;46.50;;;;;;4973871;28;96015;-50
2021/11/30 07:51:27;;;;;;;3.08;1.83;;;24.60;46.60;;;;;;4970837;28;95899;-50
2021/11/30 07:54:00;;;;;;;3.97;1.60;;;24.60;46.60;;;;;;4981587;28;96207;-50
2021/11/30 07:56:35;;;;;;;3.33;1.70;;;24.60;46.50;;;;;;4983177;28;95809;-51
2021/11/30 07:59:08;;;;;;;2.80;1.85;;;24.60;46.50;;;;;;4980947;28;95905;-51
2021/11/30 08:01:40;;;;;;;3.17;1.50;;;24.50;46.50;;;;;;4973793;28;98150;-50
2021/11/30 08:04:12;;;;;;;5.03;1.90;;;24.50;46.50;;;;;;4972534;28;96337;-50
2021/11/30 08:06:44;;;;;;;3.15;1.80;;;24.50;46.40;;;;;;4972266;28;97145;-51
2021/11/30 08:09:14;;;;;;;2.67;1.40;;;24.60;46.50;;;;;;4974466;28;96384;-50
2021/11/30 08:11:45;;;;;;;3.88;1.85;;;24.50;46.40;;;;;;4968504;28;95813;-50
2021/11/30 08:14:16;;;;;;;2.10;1.60;;;24.50;46.40;;;;;;4982147;28;96449;-53
2021/11/30 08:16:49;;;;;;;1.48;1.13;;;24.50;46.30;;;;;;4967064;28;95762;-51
2021/11/30 08:19:24;;;;;;;3.28;1.98;;;24.40;46.20;;;;;;4980940;28;95861;-50
2021/11/30 08:21:57;;;;;;;3.33;1.48;;;24.40;46.10;;;;;;4966411;28;96016;-51
2021/11/30 08:24:27;;;;;;;3.55;1.73;;;24.40;46.00;;;;;;4969386;28;96827;-51
2021/11/30 08:26:58;;;;;;;3.05;2.08;;;24.40;46.10;;;;;;4978496;28;95832;-50
2021/11/30 08:29:31;;;;;;;3.47;1.70;;;24.40;46.10;;;;;;4965097;28;96480;-50
2021/11/30 08:32:03;;;;;;;2.60;1.30;;;24.40;45.50;;;;;;4969250;28;95454;-52
2021/11/30 08:34:38;;;;;;;2.63;1.40;;;24.40;46.30;;;;;;4976364;28;96306;-51
2021/11/30 08:37:11;;;;;;;2.65;1.30;;;24.50;46.60;;;;;;4972300;28;95667;-51
2021/11/30 08:39:43;;;;;;;3.03;1.20;;;24.50;46.80;;;;;;4977053;28;95491;-50
2021/11/30 08:42:16;;;;;;;1.95;1.30;;;24.50;46.90;;;;;;4969711;28;95652;-51
2021/11/30 08:44:48;;;;;;;2.83;1.17;;;24.50;47.10;;;;;;4964550;28;96965;-50
2021/11/30 08:47:23;;;;;;;4.00;1.55;;;24.50;47.10;;;;;;4975091;28;98304;-50
2021/11/30 08:49:55;;;;;;;1.92;1.40;;;24.50;47.20;;;;;;4973209;28;95754;-52
2021/11/30 08:52:28;;;;;;;0.90;0.85;;;24.50;47.90;;;;;;4982118;28;95838;-54
2021/11/30 08:54:59;;;;;;;2.40;1.50;;;24.50;47.20;;;;;;4979760;28;95994;-54
2021/11/30 08:57:30;;;;;;;1.90;1.20;;;24.40;47.20;;;;;;4977007;28;95993;-53
2021/11/30 09:00:04;;;;;;;1.60;1.25;;;24.40;47.10;;;;;;4975651;28;96106;-53
2021/11/30 09:02:35;;;;;;;1.85;1.25;;;24.40;47.20;;;;;;4971258;28;96445;-53
2021/11/30 09:05:07;;;;;;;;;;;24.40;47.40;;;;;;4976366;28;96638;-50
2021/11/30 09:07:39;;;;;;;1.25;0.90;;;24.40;47.00;;;;;;4971241;28;96009;-54
2021/11/30 09:10:12;;;;;;;1.60;1.10;;;24.50;48.50;;;;;;4961424;28;96031;-51
2021/11/30 09:12:43;;;;;;;1.92;1.50;;;24.50;48.70;;;;;;4996965;28;97038;-51
2021/11/30 09:15:16;;;;;;;2.90;1.33;;;24.60;48.90;;;;;;4973404;28;96047;-53
2021/11/30 09:17:56;;;;;;;2.42;1.33;;;24.50;49.20;;;;;;4982088;28;102087;-53
2021/11/30 09:20:30;;;;;;;2.25;1.08;;;24.60;49.20;;;;;;4972622;28;95968;-51
2021/11/30 09:23:02;;;;;;;1.13;0.77;;;24.50;49.20;;;;;;4959815;28;95363;-53
2021/11/30 09:25:34;;;;;;;3.95;1.63;;;24.60;49.50;;;;;;4961116;28;96828;-52
2021/11/30 09:28:05;;;;;;;1.80;1.00;;;24.50;49.90;;;;;;4980975;28;96599;-56
2021/11/30 09:30:38;;;;;;;3.72;1.20;;;24.60;50.40;;;;;;4970367;28;96191;-54
2021/11/30 09:33:11;;;;;;;1.98;1.20;;;24.60;50.80;;;;;;4960046;28;97704;-53
2021/11/30 09:35:41;;;;;;;3.47;1.15;;;24.50;50.70;;;;;;4955721;28;96488;-53
2021/11/30 09:38:13;;;;;;;2.35;1.27;;;24.50;52.00;;;;;;4954441;28;96116;-51
2021/11/30 09:40:47;;;;;;;2.83;1.17;;;24.40;51.60;;;;;;4955454;28;96445;-51
2021/11/30 09:43:36;;;;;;;1.35;1.23;;;24.40;52.10;;;;;;4962235;28;95788;-54
2021/11/30 09:46:11;;;;;;;1.08;0.93;;;24.40;52.40;;;;;;4962481;28;96242;-51
2021/11/30 09:48:44;;;;;;;3.63;1.27;;;24.30;52.80;;;;;;4966217;28;96093;-52
2021/11/30 09:51:15;;;;;;;4.50;1.42;;;24.30;53.20;;;;;;4964457;28;96941;-52
2021/11/30 09:53:49;;;;;;;1.13;0.95;;;24.30;53.40;;;;;;4963112;28;96010;-53
2021/11/30 09:56:23;;;;;;;2.30;0.73;;;24.30;53.70;;;;;;4959944;28;96174;-53
2021/11/30 09:58:56;;;;;;;1.35;1.00;;;24.30;53.90;;;;;;4967244;28;95720;-53
2021/11/30 10:01:27;;;;;;;2.13;1.05;;;24.30;54.00;;;;;;4953851;28;95809;-52
2021/11/30 10:04:00;;;;;;;1.40;0.90;;;24.30;54.10;;;;;;4980969;28;96079;-53
2021/11/30 10:06:35;;;;;;;1.95;1.20;;;24.30;54.20;;;;;;4986782;28;96806;-53
2021/11/30 10:09:21;;;;;;;2.83;1.17;;;24.30;54.50;;;;;;4972675;28;95753;-51
2021/11/30 10:12:03;;;;;;;3.35;0.98;;;24.20;54.50;;;;;;4974418;28;95745;-57
2021/11/30 10:14:37;;;;;;;2.25;0.85;;;24.30;54.80;;;;;;4986658;28;95636;-52
2021/11/30 10:17:19;;;;;;;1.45;1.30;;;24.20;54.90;;;;;;4968327;28;97171;-54
2021/11/30 10:19:55;;;;;;;2.20;0.90;;;24.20;55.10;;;;;;4982609;28;95469;-55
2021/11/30 10:22:47;;;;;;;3.17;1.00;;;24.20;55.30;;;;;;4983548;28;95948;-51
2021/11/30 10:25:27;;;;;;;1.88;1.10;;;24.20;55.30;;;;;;4985479;28;95571;-51
2021/11/30 10:28:04;;;;;;;1.55;0.90;;;24.20;55.50;;;;;;4978350;28;96368;-54
2021/11/30 10:30:42;;;;;;;1.13;1.00;;;24.20;55.80;;;;;;4969677;28;95957;-56
2021/11/30 10:33:17;;;;;;;2.35;1.10;;;24.20;55.90;;;;;;4968520;28;95800;-53
2021/11/30 10:35:54;;;;;;;1.08;0.98;;;24.10;56.00;;;;;;4979390;28;96824;-51
2021/11/30 10:38:37;;;;;;;1.30;1.13;;;24.10;56.10;;;;;;4966674;28;96574;-51
2021/11/30 10:41:18;;;;;;;2.50;1.25;;;24.10;56.20;;;;;;4977802;28;95885;-53
2021/11/30 10:44:00;;;;;;;;;;;24.10;56.50;;;;;;4981991;28;95406;-54
2021/11/30 10:46:34;;;;;;;2.33;1.02;;;24.10;56.50;;;;;;4981804;28;95855;-57
2021/11/30 10:49:05;;;;;;;3.15;1.23;;;24.00;56.60;;;;;;4985139;28;96341;-55
2021/11/30 10:51:53;;;;;;;1.85;1.35;;;24.00;56.80;;;;;;4978785;28;95976;-51
2021/11/30 10:54:37;;;;;;;3.13;1.70;;;24.10;56.90;;;;;;4981156;28;96861;-53
2021/11/30 10:57:08;;;;;;;5.63;1.52;;;24.10;57.00;;;;;;4983375;28;95721;-51
2021/11/30 10:59:40;;;;;;;4.85;1.63;;;24.00;57.20;;;;;;4996604;28;96944;-54
2021/11/30 11:02:12;;;;;;;3.47;1.30;;;24.00;56.50;;;;;;4972408;28;98032;-54
2021/11/30 11:04:46;;;;;;;4.97;2.10;;;24.00;57.40;;;;;;4986143;28;97553;-55
2021/11/30 11:07:18;;;;;;;6.43;1.50;;;24.00;57.50;;;;;;4981452;28;95176;-54
2021/11/30 11:09:52;;;;;;;3.38;1.42;;;23.90;57.60;;;;;;4976658;28;95967;-54
2021/11/30 11:12:27;;;;;;;3.42;1.40;;;23.90;57.60;;;;;;4973211;28;96314;-53
2021/11/30 11:15:05;;;;;;;4.40;1.55;;;23.90;58.30;;;;;;4976384;28;96547;-53
2021/11/30 11:17:38;;;;;;;3.78;1.40;;;23.90;57.50;;;;;;4973851;28;95942;-54
2021/11/30 11:20:09;;;;;;;2.20;1.60;;;23.80;57.30;;;;;;4977897;28;96427;-51
2021/11/30 11:22:56;;;;;;;2.88;1.23;;;23.80;57.20;;;;;;4978580;28;96477;-53
2021/11/30 11:25:33;;;;;;;4.18;1.42;;;23.70;57.10;;;;;;4975985;28;95831;-51
2021/11/30 11:28:05;;;;;;;2.25;1.23;;;23.70;57.30;;;;;;4974129;28;95820;-53
2021/11/30 11:30:36;;;;;;;1.80;1.27;;;23.70;57.50;;;;;;4970534;28;96549;-52
2021/11/30 11:33:08;;;;;;;3.60;1.58;;;23.70;57.70;;;;;;4974624;28;97881;-53
2021/11/30 11:35:42;;;;;;;1.92;1.10;;;23.70;57.80;;;;;;4973865;28;95791;-54
2021/11/30 11:38:14;;;;;;;4.32;1.25;;;23.60;57.80;;;;;;4976339;28;95574;-53
2021/11/30 11:40:46;;;;;;;3.55;1.30;;;23.60;58.00;;;;;;4977604;28;99329;-55
2021/11/30 11:43:16;;;;;;;;;;;23.60;58.10;;;;;;4974507;28;95719;-54
2021/11/30 11:45:46;;;;;;;3.83;1.10;;;23.60;58.20;;;;;;4972842;28;96057;-52
2021/11/30 11:48:17;;;;;;;1.65;1.45;;;23.60;58.30;;;;;;4983346;28;95768;-51
2021/11/30 11:50:53;;;;;;;4.63;1.57;;;23.60;58.50;;;;;;4972164;28;96457;-54
2021/11/30 11:53:33;;;;;;;3.13;1.65;;;23.60;58.60;;;;;;4976787;28;95454;-54
2021/11/30 11:56:26;;;;;;;4.30;1.30;;;23.60;58.60;;;;;;4973508;28;95816;-55
2021/11/30 11:59:19;;;;;;;2.10;1.60;;;23.50;58.80;;;;;;4995374;28;96093;-51
2021/11/30 12:02:11;;;;;;;2.97;1.30;;;23.50;58.90;;;;;;4975952;28;96039;-57
2021/11/30 12:04:44;;;;;;;3.83;1.20;;;23.50;59.00;;;;;;4984344;28;96130;-53
2021/11/30 12:07:17;;;;;;;3.90;1.60;;;23.50;59.00;;;;;;4976432;28;95319;-51
2021/11/30 12:10:10;;;;;;;;;;;23.50;59.10;;;;;;4973304;28;95860;-53
2021/11/30 12:12:42;;;;;;;2.13;1.30;;;23.40;59.20;;;;;;4975795;28;96319;-51
2021/11/30 12:15:14;;;;;;;3.05;1.65;;;23.40;59.30;;;;;;4968964;28;99070;-54
2021/11/30 12:17:45;;;;;;;1.80;1.40;;;23.40;59.30;;;;;;4973041;28;95744;-51
2021/11/30 12:20:21;;;;;;;1.83;0.98;;;23.40;59.40;;;;;;4966288;28;98154;-51
2021/11/30 12:23:03;;;;;;;2.08;1.42;;;23.40;59.50;;;;;;4975147;28;96053;-52
2021/11/30 12:25:47;;;;;;;1.65;1.13;;;23.40;59.60;;;;;;4970549;28;96305;-53
2021/11/30 12:28:42;;;;;;;4.18;1.58;;;23.30;59.60;;;;;;4970647;28;95442;-52
2021/11/30 12:31:35;;;;;;;3.17;1.40;;;23.30;59.70;;;;;;4964426;28;95376;-54
2021/11/30 12:34:09;;;;;;;4.30;1.67;;;23.30;59.70;;;;;;4972467;28;96004;-55
2021/11/30 12:36:42;;;;;;;2.15;1.27;;;23.20;59.80;;;;;;4985847;28;95776;-52
2021/11/30 12:39:18;;;;;;;1.17;0.95;;;23.20;59.80;;;;;;4973234;28;95834;-53
2021/11/30 12:41:59;;;;;;;1.88;1.17;;;23.20;59.90;;;;;;4962138;28;96150;-54
2021/11/30 12:44:42;;;;;;;3.05;1.25;;;23.20;60.00;;;;;;4965465;28;96488;-50
2021/11/30 12:47:26;;;;;;;4.32;1.27;;;23.20;60.10;;;;;;4967877;28;96211;-53
2021/11/30 12:49:57;;;;;;;6.07;2.05;;;23.20;60.10;;;;;;4984213;28;96041;-51
2021/11/30 12:52:43;;;;;;;2.50;1.30;;;23.10;60.20;;;;;;4978802;28;97303;-53
2021/11/30 12:55:16;;;;;;;3.72;1.65;;;23.10;60.40;;;;;;4972276;28;96500;-54
2021/11/30 12:57:47;;;;;;;5.32;1.60;;;23.00;60.50;;;;;;4981717;28;95801;-52
2021/11/30 13:00:25;;;;;;;5.47;1.58;;;23.00;60.80;;;;;;4967921;28;98281;-51
2021/11/30 13:03:17;;;;;;;3.60;1.50;;;22.90;61.00;;;;;;4969399;28;95867;-51
2021/11/30 13:05:58;;;;;;;2.00;1.45;;;22.90;61.10;;;;;;4971490;28;96035;-50
2021/11/30 13:08:29;;;;;;;3.28;1.30;;;22.90;61.20;;;;;;4977515;28;96136;-51
2021/11/30 13:11:05;;;;;;;2.72;1.10;;;22.90;61.20;;;;;;4971969;28;95721;-51
2021/11/30 13:13:38;;;;;;;1.27;1.05;;;22.90;61.40;;;;;;4976464;28;95851;-51
2021/11/30 13:16:10;;;;;;;2.05;1.50;;;22.90;62.00;;;;;;4977682;28;96044;-51
2021/11/30 13:18:45;;;;;;;3.35;1.60;;;22.80;61.40;;;;;;4970372;28;97125;-53
2021/11/30 13:21:16;;;;;;;17.55;2.30;;;22.80;61.40;;;;;;4980092;28;95879;-51
2021/11/30 13:23:48;;;;;;;;;;;22.80;61.60;;;;;;4977307;28;95705;-50
2021/11/30 13:26:20;;;;;;;6.40;2.50;;;22.80;61.50;;;;;;4974894;28;96046;-52
2021/11/30 13:28:59;;;;;;;9.88;3.15;;;22.80;61.70;;;;;;4977544;28;95910;-51
2021/11/30 13:31:30;;;;;;;8.32;3.20;;;22.70;61.70;;;;;;4965817;28;95586;-50
2021/11/30 13:34:02;;;;;;;8.18;2.90;;;22.70;61.80;;;;;;4969763;28;95912;-50
2021/11/30 13:36:34;;;;;;;5.60;2.67;;;22.60;61.90;;;;;;4969268;28;96875;-51